createdAt,value
2022-11-22T00:00:25.355Z,8.32
2022-11-22T00:02:51.954Z,7.25
2022-11-22T00:05:18.628Z,7.75
2022-11-22T00:07:45.225Z,7.45
2022-11-22T00:10:13.417Z,7.63
2022-11-22T00:12:40.542Z,8.07
2022-11-22T00:15:07.878Z,8.23
2022-11-22T00:17:35.638Z,7.75
2022-11-22T00:20:02.229Z,7.65
2022-11-22T00:22:28.970Z,8.25
2022-11-22T00:24:55.508Z,8.80
2022-11-22T00:27:22.149Z,8.13
2022-11-22T00:29:48.854Z,8.57
2022-11-22T00:32:16.098Z,8.60
2022-11-22T00:34:43.072Z,8.38
2022-11-22T00:37:09.671Z,8.38
2022-11-22T00:39:36.306Z,8.07
2022-11-22T00:42:02.993Z,8.77
2022-11-22T00:44:29.573Z,8.70
2022-11-22T00:46:56.183Z,8.85
2022-11-22T00:49:22.959Z,8.93
2022-11-22T00:51:49.514Z,9.27
2022-11-22T00:54:16.113Z,7.97
2022-11-22T00:56:42.675Z,8.45
2022-11-22T00:59:09.247Z,8.73
2022-11-22T01:01:36.010Z,8.80
2022-11-22T01:04:02.633Z,7.72
2022-11-22T01:06:29.265Z,8.38
2022-11-22T01:08:55.885Z,7.95
2022-11-22T01:11:22.561Z,8.90
2022-11-22T01:13:49.141Z,8.32
2022-11-22T01:16:16.961Z,7.72
2022-11-22T01:18:43.726Z,7.47
2022-11-22T01:21:10.382Z,8.63
2022-11-22T01:23:37.433Z,8.13
2022-11-22T01:26:06.583Z,7.18
2022-11-22T01:28:33.418Z,8.68
2022-11-22T01:31:00.006Z,8.65
2022-11-22T01:33:28.059Z,7.80
2022-11-22T01:35:54.732Z,7.03
2022-11-22T01:38:21.368Z,7.97
2022-11-22T01:40:47.920Z,7.60
2022-11-22T01:43:19.488Z,6.78
2022-11-22T01:45:52.044Z,7.00
2022-11-22T01:48:25.600Z,7.40
2022-11-22T01:50:59.195Z,8.30
2022-11-22T01:53:30.816Z,8.35
2022-11-22T01:56:00.862Z,8.20
2022-11-22T01:58:31.922Z,7.93
2022-11-22T02:00:58.762Z,7.95
2022-11-22T02:03:28.711Z,7.60
2022-11-22T02:05:56.237Z,8.20
2022-11-22T02:08:47.635Z,8.98
2022-11-22T02:11:14.387Z,7.93
2022-11-22T02:13:43.623Z,7.35
2022-11-22T02:16:12.254Z,7.82
2022-11-22T02:18:39.143Z,9.25
2022-11-22T02:21:06.295Z,8.63
2022-11-22T02:23:51.719Z,9.23
2022-11-22T02:26:18.334Z,8.30
2022-11-22T02:28:45.167Z,8.70
2022-11-22T02:31:34.375Z,8.20
2022-11-22T02:34:01.916Z,8.05
2022-11-22T02:36:29.955Z,7.60
2022-11-22T02:38:56.655Z,7.15
2022-11-22T02:41:23.283Z,8.95
2022-11-22T02:43:50.181Z,7.93
2022-11-22T02:46:20.540Z,7.68
2022-11-22T02:48:50.300Z,8.50
2022-11-22T02:51:20.758Z,9.02
2022-11-22T02:53:49.308Z,7.33
2022-11-22T02:56:16.898Z,8.30
2022-11-22T02:58:44.287Z,8.75
2022-11-22T03:01:12.434Z,7.57
2022-11-22T03:03:39.071Z,6.03
2022-11-22T03:06:05.722Z,8.10
2022-11-22T03:08:33.311Z,7.55
2022-11-22T03:11:00.173Z,7.65
2022-11-22T03:13:26.928Z,7.10
2022-11-22T03:15:53.560Z,6.72
2022-11-22T03:18:20.103Z,7.97
2022-11-22T03:20:46.634Z,8.05
2022-11-22T03:23:13.279Z,7.35
2022-11-22T03:25:40.404Z,8.35
2022-11-22T03:28:07.636Z,7.90
2022-11-22T03:30:34.191Z,8.23
2022-11-22T03:33:00.753Z,8.73
2022-11-22T03:35:27.341Z,8.38
2022-11-22T03:37:53.903Z,8.30
2022-11-22T03:40:21.119Z,8.02
2022-11-22T03:42:47.903Z,8.02
2022-11-22T03:45:14.512Z,7.32
2022-11-22T03:47:41.151Z,8.18
2022-11-22T03:50:08.006Z,8.77
2022-11-22T03:52:34.550Z,8.70
2022-11-22T03:55:01.082Z,8.20
2022-11-22T03:57:27.851Z,9.07
2022-11-22T03:59:54.428Z,8.93
2022-11-22T04:02:21.095Z,9.02
2022-11-22T04:04:47.717Z,8.60
2022-11-22T04:07:14.322Z,9.82
2022-11-22T04:09:40.904Z,25.55
2022-11-22T04:12:07.560Z,39.95
2022-11-22T04:14:52.801Z,35.03
2022-11-22T04:17:39.352Z,41.15
2022-11-22T04:20:26.972Z,37.80
2022-11-22T04:23:02.577Z,39.80
2022-11-22T04:25:31.709Z,19.50
2022-11-22T04:27:59.131Z,10.15
2022-11-22T04:30:47.406Z,9.32
2022-11-22T04:33:14.935Z,8.30
2022-11-22T04:35:42.157Z,8.75
2022-11-22T04:38:08.993Z,8.90
2022-11-22T04:40:36.141Z,8.85
2022-11-22T04:43:21.585Z,8.60
2022-11-22T04:45:48.437Z,11.45
2022-11-22T04:48:15.774Z,9.90
2022-11-22T04:51:01.992Z,8.80
2022-11-22T04:53:29.385Z,8.13
2022-11-22T04:55:56.585Z,8.50
2022-11-22T04:58:23.730Z,8.88
2022-11-22T05:00:51.873Z,9.40
2022-11-22T05:03:18.758Z,8.93
2022-11-22T05:05:45.504Z,14.73
2022-11-22T05:08:12.933Z,13.38
2022-11-22T05:10:58.238Z,13.07
2022-11-22T05:13:28.205Z,10.45
2022-11-22T05:15:55.959Z,10.65
2022-11-22T05:18:23.475Z,10.85
2022-11-22T05:20:50.544Z,12.60
2022-11-22T05:23:36.379Z,15.30
2022-11-22T05:26:03.095Z,10.98
2022-11-22T05:28:31.613Z,9.27
2022-11-22T05:30:58.404Z,9.75
2022-11-22T05:33:25.316Z,9.02
2022-11-22T05:35:51.919Z,9.10
2022-11-22T05:38:18.546Z,9.43
2022-11-22T05:40:45.114Z,10.02
2022-11-22T05:43:14.449Z,9.27
2022-11-22T05:45:40.957Z,9.38
2022-11-22T05:48:07.588Z,9.77
2022-11-22T05:50:34.302Z,8.80
2022-11-22T05:53:05.528Z,8.55
2022-11-22T05:55:32.150Z,9.05
2022-11-22T05:58:02.012Z,9.32
2022-11-22T06:00:29.862Z,10.55
2022-11-22T06:03:07.287Z,10.13
2022-11-22T06:05:34.361Z,9.07
2022-11-22T06:08:02.684Z,8.77
2022-11-22T06:10:29.304Z,9.57
2022-11-22T06:12:55.984Z,8.45
2022-11-22T06:15:22.697Z,9.68
2022-11-22T06:17:49.314Z,10.30
2022-11-22T06:20:16.102Z,8.68
2022-11-22T06:22:45.707Z,8.93
2022-11-22T06:25:12.587Z,9.10
2022-11-22T06:27:39.199Z,9.52
2022-11-22T06:30:06.873Z,8.50
2022-11-22T06:32:37.251Z,9.50
2022-11-22T06:35:04.129Z,9.93
2022-11-22T06:37:30.978Z,8.43
2022-11-22T06:39:57.552Z,8.00
2022-11-22T06:42:24.203Z,8.68
2022-11-22T06:44:52.297Z,8.05
2022-11-22T06:47:18.910Z,7.80
2022-11-22T06:49:46.251Z,8.15
2022-11-22T06:52:12.890Z,8.30
2022-11-22T06:54:41.569Z,7.53
2022-11-22T06:57:08.130Z,8.18
2022-11-22T06:59:34.776Z,9.35
2022-11-22T07:02:06.625Z,10.65
2022-11-22T07:04:33.672Z,8.82
2022-11-22T07:07:00.212Z,8.48
2022-11-22T07:09:26.909Z,8.10
2022-11-22T07:11:53.564Z,7.20
2022-11-22T07:14:20.223Z,6.90
2022-11-22T07:16:46.797Z,7.63
2022-11-22T07:19:13.296Z,7.50
2022-11-22T07:21:39.931Z,7.70
2022-11-22T07:24:07.241Z,7.65
2022-11-22T07:26:33.959Z,8.05
2022-11-22T07:29:00.521Z,8.43
2022-11-22T07:31:28.225Z,8.57
2022-11-22T07:33:56.479Z,8.82
2022-11-22T07:36:23.932Z,8.77
2022-11-22T07:38:51.354Z,8.02
2022-11-22T07:41:19.589Z,8.32
2022-11-22T07:43:46.985Z,7.95
2022-11-22T07:46:29.868Z,8.60
2022-11-22T07:48:57.698Z,8.27
2022-11-22T07:51:24.606Z,8.05
2022-11-22T07:53:51.185Z,8.20
2022-11-22T07:56:20.893Z,8.65
2022-11-22T07:58:50.486Z,7.82
2022-11-22T08:01:18.359Z,8.73
2022-11-22T08:03:45.600Z,10.48
2022-11-22T08:06:13.673Z,9.13
2022-11-22T08:08:40.382Z,8.35
2022-11-22T08:11:07.548Z,7.97
2022-11-22T08:13:34.854Z,7.15
2022-11-22T08:16:13.709Z,8.68
2022-11-22T08:18:40.949Z,7.18
2022-11-22T08:21:09.757Z,8.73
2022-11-22T08:23:37.018Z,8.32
2022-11-22T08:26:04.641Z,8.77
2022-11-22T08:28:31.530Z,8.25
2022-11-22T08:31:09.683Z,8.23
2022-11-22T08:33:36.803Z,9.73
2022-11-22T08:36:04.007Z,10.82
2022-11-22T08:38:30.737Z,11.70
2022-11-22T08:40:57.693Z,11.18
2022-11-22T08:43:24.791Z,8.57
2022-11-22T08:45:57.822Z,8.57
2022-11-22T08:48:29.484Z,10.38
2022-11-22T08:50:58.888Z,8.32
2022-11-22T08:53:26.620Z,10.45
2022-11-22T08:55:54.623Z,12.55
2022-11-22T08:58:21.829Z,9.73
2022-11-22T09:00:48.426Z,11.70
2022-11-22T09:03:14.982Z,8.68
2022-11-22T09:08:31.204Z,10.23
2022-11-22T09:11:06.485Z,9.95
2022-11-22T09:13:33.699Z,10.88
2022-11-22T09:16:18.910Z,9.90
2022-11-22T09:18:46.992Z,10.68
2022-11-22T09:21:19.635Z,8.93
2022-11-22T09:23:48.696Z,9.50
2022-11-22T09:26:21.754Z,8.98
2022-11-22T09:28:48.677Z,9.40
2022-11-22T09:31:17.728Z,8.45
2022-11-22T09:33:45.211Z,8.25
2022-11-22T09:36:17.005Z,7.38
2022-11-22T09:38:43.582Z,8.15
2022-11-22T09:41:16.365Z,8.80
2022-11-22T09:44:01.916Z,9.05
2022-11-22T09:46:49.928Z,8.95
2022-11-22T09:49:37.743Z,8.13
2022-11-22T09:52:33.451Z,9.00
2022-11-22T09:55:06.786Z,9.13
2022-11-22T09:57:40.462Z,11.10
2022-11-22T10:00:18.782Z,8.00
2022-11-22T10:03:18.214Z,9.50
2022-11-22T10:05:53.659Z,8.23
2022-11-22T10:08:39.898Z,8.82
2022-11-22T10:11:37.233Z,8.63
2022-11-22T10:14:27.734Z,8.02
2022-11-22T10:17:01.168Z,7.65
2022-11-22T10:19:50.329Z,8.35
2022-11-22T10:22:17.011Z,8.48
2022-11-22T10:24:43.831Z,8.25
2022-11-22T10:27:15.459Z,7.63
2022-11-22T10:29:45.934Z,7.80
2022-11-22T10:32:40.425Z,7.83
2022-11-22T10:35:37.898Z,8.82
2022-11-22T10:38:38.637Z,8.50
2022-11-22T10:41:41.812Z,8.90
2022-11-22T10:44:36.188Z,8.85
2022-11-22T10:47:08.511Z,8.82
2022-11-22T10:49:47.122Z,9.43
2022-11-22T10:52:28.389Z,8.13
2022-11-22T10:55:13.949Z,9.90
2022-11-22T10:57:43.332Z,11.10
2022-11-22T11:00:25.046Z,10.48
2022-11-22T11:02:54.299Z,11.40
2022-11-22T11:05:28.375Z,11.60
2022-11-22T11:08:04.127Z,12.57
2022-11-22T11:10:39.426Z,12.70
2022-11-22T11:13:26.385Z,12.05
2022-11-22T11:15:59.407Z,10.68
2022-11-22T11:18:38.959Z,10.75
2022-11-22T11:21:07.671Z,9.52
2022-11-22T11:23:34.800Z,9.00
2022-11-22T11:26:30.481Z,12.10
2022-11-22T11:29:18.627Z,9.25
2022-11-22T11:31:46.791Z,7.68
2022-11-22T11:34:22.468Z,9.23
2022-11-22T11:36:50.615Z,10.90
2022-11-22T11:39:22.119Z,9.75
2022-11-22T11:41:48.740Z,9.40
2022-11-22T11:44:34.662Z,10.38
2022-11-22T11:47:01.817Z,11.13
2022-11-22T11:49:30.629Z,10.60
2022-11-22T11:52:04.367Z,9.93
2022-11-22T11:54:43.073Z,12.82
2022-11-22T11:57:30.436Z,10.48
2022-11-22T12:02:38.768Z,11.88
2022-11-22T12:05:12.339Z,10.70
2022-11-22T12:07:40.894Z,10.68
2022-11-22T12:10:49.167Z,12.00
2022-11-22T12:13:20.701Z,12.95
2022-11-22T12:15:57.050Z,14.85
2022-11-22T12:18:46.136Z,8.55
2022-11-22T12:21:54.315Z,8.43
2022-11-22T12:27:10.163Z,8.57
2022-11-22T12:29:39.847Z,13.73
2022-11-22T12:32:45.539Z,12.63
2022-11-22T12:35:19.856Z,13.65
2022-11-22T12:37:55.412Z,11.10
2022-11-22T12:40:27.135Z,11.93
2022-11-22T12:43:08.175Z,10.70
2022-11-22T12:45:50.881Z,11.27
2022-11-22T12:48:23.755Z,6.93
2022-11-22T12:48:36.946Z,10.45
2022-11-22T12:51:17.329Z,9.63
2022-11-22T12:53:45.670Z,8.73
2022-11-22T12:56:18.302Z,9.43
2022-11-22T12:59:02.403Z,9.55
2022-11-22T13:01:32.549Z,11.10
2022-11-22T13:04:11.385Z,9.57
2022-11-22T13:06:58.077Z,10.20
2022-11-22T13:09:33.471Z,10.77
2022-11-22T13:12:05.557Z,10.07
2022-11-22T13:14:44.567Z,10.02
2022-11-22T13:17:12.829Z,10.30
2022-11-22T13:20:03.118Z,9.23
2022-11-22T13:22:51.507Z,9.90
2022-11-22T13:25:53.871Z,9.73
2022-11-22T13:28:25.216Z,11.52
2022-11-22T13:33:58.700Z,11.77
